Time;durP1;ratioP1;P1;durP2;ratioP2;P2;SDS_P1;SDS_P2;PMS_P1;PMS_P2;Temp;Humidity;BMP_temperature;BMP_pressure;BME280_temperature;BME280_humidity;BME280_pressure;Samples;Min_cycle;Max_cycle;Signal;HPM_P1;HPM_P2
2024/03/18 00:02:07;;;;;;;8.65;2.67;;;6.60;90.90;;;;;;5114472;28;20196;-61
2024/03/18 00:04:34;;;;;;;7.28;2.30;;;6.60;91.00;;;;;;5115009;28;20282;-61
2024/03/18 00:07:00;;;;;;;8.10;2.72;;;6.60;91.00;;;;;;5114712;28;20200;-59
2024/03/18 00:09:27;;;;;;;5.68;2.10;;;6.50;91.00;;;;;;5113932;28;20227;-62
2024/03/18 00:11:54;;;;;;;6.55;2.78;;;6.50;91.00;;;;;;5114678;28;20207;-62
2024/03/18 00:14:21;;;;;;;5.88;2.25;;;6.50;91.10;;;;;;5114138;28;20561;-60
2024/03/18 00:16:49;;;;;;;6.78;2.45;;;6.50;91.10;;;;;;5113777;28;20629;-61
2024/03/18 00:19:16;;;;;;;8.95;2.42;;;6.50;91.10;;;;;;5113144;28;20236;-60
2024/03/18 00:21:42;;;;;;;9.70;2.60;;;6.50;91.10;;;;;;5113308;28;20214;-62
2024/03/18 00:24:09;;;;;;;5.47;2.03;;;6.50;91.00;;;;;;5113837;28;20203;-60
2024/03/18 00:26:36;;;;;;;3.58;2.10;;;6.50;91.10;;;;;;5113613;28;20208;-61
2024/03/18 00:29:03;;;;;;;4.70;2.35;;;6.40;91.10;;;;;;5115364;28;20219;-61
2024/03/18 00:31:31;;;;;;;6.30;2.25;;;6.40;91.10;;;;;;5117083;28;20233;-61
2024/03/18 00:33:59;;;;;;;9.75;2.30;;;6.40;91.10;;;;;;5117494;28;20199;-61
2024/03/18 00:36:26;;;;;;;5.50;2.10;;;6.40;91.10;;;;;;5117672;28;20222;-60
2024/03/18 00:38:52;;;;;;;6.35;2.25;;;6.40;91.20;;;;;;5117437;28;20598;-61
2024/03/18 00:44:04;;;;;;;7.05;2.35;;;6.40;91.20;;;;;;5117215;28;20183;-61
2024/03/18 00:46:30;;;;;;;7.63;1.80;;;6.30;91.10;;;;;;5117511;27;20200;-61
2024/03/18 00:48:57;;;;;;;7.67;2.70;;;6.30;91.20;;;;;;5117367;28;20215;-61
2024/03/18 00:51:25;;;;;;;7.32;2.60;;;6.30;91.60;;;;;;5117230;28;20199;-61
2024/03/18 00:53:52;;;;;;;7.35;2.60;;;6.30;91.30;;;;;;5116993;28;20203;-61
2024/03/18 00:56:18;;;;;;;7.63;2.80;;;6.30;91.40;;;;;;5116758;28;20204;-61
2024/03/18 00:58:45;;;;;;;6.18;2.95;;;6.20;91.40;;;;;;5116892;28;20220;-62
2024/03/18 01:01:12;;;;;;;4.97;2.53;;;6.20;91.50;;;;;;5117077;28;20203;-61
2024/03/18 01:03:39;;;;;;;6.35;2.78;;;6.20;91.50;;;;;;5116836;28;20206;-61
2024/03/18 01:06:05;;;;;;;10.85;2.40;;;6.20;91.60;;;;;;5116888;28;20670;-63
2024/03/18 01:08:33;;;;;;;8.80;2.80;;;6.20;91.80;;;;;;5116870;28;20194;-62
2024/03/18 01:10:59;;;;;;;8.45;2.30;;;6.10;91.80;;;;;;5116710;28;20207;-61
2024/03/18 01:13:31;;;;;;;4.68;1.92;;;6.10;91.80;;;;;;5116499;27;20216;-61
2024/03/18 01:15:58;;;;;;;4.45;2.05;;;6.10;91.90;;;;;;5116331;28;20667;-61
2024/03/18 01:18:25;;;;;;;5.43;2.15;;;6.10;91.90;;;;;;5116369;28;20216;-63
2024/03/18 01:20:51;;;;;;;3.40;2.40;;;6.10;92.00;;;;;;5117098;28;20213;-61
2024/03/18 01:23:18;;;;;;;6.57;1.98;;;6.10;92.00;;;;;;5119527;28;20206;-61
2024/03/18 01:25:47;;;;;;;6.15;2.42;;;6.10;92.00;;;;;;5117189;28;20196;-62
2024/03/18 01:28:14;;;;;;;6.53;1.98;;;6.00;91.90;;;;;;5116765;28;20661;-61
2024/03/18 01:30:42;;;;;;;5.20;2.10;;;6.00;92.10;;;;;;5117294;28;20220;-61
2024/03/18 01:33:09;;;;;;;6.55;2.13;;;6.00;92.10;;;;;;5117193;28;20195;-62
2024/03/18 01:35:36;;;;;;;7.45;2.17;;;6.00;92.10;;;;;;5116639;28;20571;-61
2024/03/18 01:38:03;;;;;;;5.68;1.92;;;6.00;92.20;;;;;;5116819;28;20535;-60
2024/03/18 01:40:30;;;;;;;6.50;2.28;;;6.00;92.30;;;;;;5116066;28;20226;-60
2024/03/18 01:42:58;;;;;;;4.07;2.08;;;5.90;92.40;;;;;;5116726;28;20207;-60
2024/03/18 01:45:25;;;;;;;4.85;2.00;;;5.90;92.50;;;;;;5116714;28;20199;-60
2024/03/18 01:47:52;;;;;;;6.65;1.98;;;5.90;92.60;;;;;;5116654;27;20195;-60
2024/03/18 01:50:20;;;;;;;6.43;2.53;;;5.90;92.60;;;;;;5116527;28;20713;-60
2024/03/18 01:52:47;;;;;;;5.78;2.50;;;6.00;92.70;;;;;;5116898;28;20573;-61
2024/03/18 01:55:14;;;;;;;8.23;2.55;;;5.90;92.70;;;;;;5116080;27;20618;-59
2024/03/18 01:57:41;;;;;;;3.10;2.05;;;5.90;92.70;;;;;;5115871;28;20215;-60
2024/03/18 02:00:15;;;;;;;9.18;2.55;;;5.90;92.70;;;;;;5115939;28;20253;-61
2024/03/18 02:02:42;;;;;;;7.20;2.33;;;6.00;92.80;;;;;;5116103;28;20223;-62
2024/03/18 02:05:09;;;;;;;11.15;2.60;;;6.00;92.70;;;;;;5116338;27;20196;-60
2024/03/18 02:07:37;;;;;;;5.82;2.67;;;6.00;92.80;;;;;;5115908;28;20200;-61
2024/03/18 02:10:04;;;;;;;8.95;2.80;;;6.00;92.80;;;;;;5115307;28;20318;-61
2024/03/18 02:12:32;;;;;;;3.45;2.47;;;6.00;92.80;;;;;;5115996;28;20211;-61
2024/03/18 02:14:59;;;;;;;8.32;2.33;;;6.00;92.80;;;;;;5115567;28;20252;-61
2024/03/18 02:17:27;;;;;;;8.10;2.67;;;6.00;92.90;;;;;;5115884;28;20200;-61
2024/03/18 02:19:54;;;;;;;6.50;2.42;;;5.90;92.90;;;;;;5115137;28;20234;-61
2024/03/18 02:22:22;;;;;;;5.60;2.70;;;5.90;93.20;;;;;;5115283;28;20208;-60
2024/03/18 02:24:49;;;;;;;5.40;2.53;;;5.90;93.30;;;;;;5115114;28;20199;-60
2024/03/18 02:27:15;;;;;;;9.13;2.38;;;5.80;93.40;;;;;;5115198;28;20206;-61
2024/03/18 02:29:42;;;;;;;6.40;2.55;;;5.80;93.50;;;;;;5115140;28;20314;-61
2024/03/18 02:32:10;;;;;;;10.65;2.38;;;5.70;93.90;;;;;;5114980;28;20579;-61
2024/03/18 02:34:38;;;;;;;3.58;2.22;;;5.70;93.90;;;;;;5115002;28;20661;-61
2024/03/18 02:37:05;;;;;;;9.23;2.92;;;5.60;94.00;;;;;;5115451;28;20199;-61
2024/03/18 02:39:34;;;;;;;9.77;2.63;;;5.60;94.30;;;;;;5115342;28;20228;-61
2024/03/18 02:42:01;;;;;;;5.65;2.80;;;5.60;94.50;;;;;;5115221;28;20677;-61
2024/03/18 02:44:28;;;;;;;7.97;3.13;;;5.50;94.70;;;;;;5114997;28;20200;-61
2024/03/18 02:46:55;;;;;;;6.60;2.30;;;5.50;94.80;;;;;;5115136;28;20196;-60
2024/03/18 02:49:21;;;;;;;8.52;2.65;;;5.50;95.10;;;;;;5115165;28;20223;-59
2024/03/18 02:51:48;;;;;;;5.30;2.53;;;5.50;95.20;;;;;;5113716;28;20233;-59
2024/03/18 02:54:15;;;;;;;5.53;2.50;;;5.40;95.30;;;;;;5114901;28;20211;-61
2024/03/18 02:56:43;;;;;;;7.95;2.63;;;5.40;95.40;;;;;;5114770;28;20200;-61
2024/03/18 02:59:10;;;;;;;3.83;2.25;;;5.40;95.50;;;;;;5114347;28;20223;-62
2024/03/18 03:01:37;;;;;;;3.88;2.00;;;5.40;95.60;;;;;;5114701;28;20208;-62
2024/03/18 03:04:04;;;;;;;5.38;2.65;;;5.40;95.80;;;;;;5114809;28;20252;-61
2024/03/18 03:06:31;;;;;;;3.30;2.15;;;5.40;95.90;;;;;;5114409;28;20203;-61
2024/03/18 03:08:58;;;;;;;6.85;3.00;;;5.40;95.90;;;;;;5114388;28;20222;-60
2024/03/18 03:11:24;;;;;;;6.25;2.70;;;5.40;95.90;;;;;;5114110;28;20254;-60
2024/03/18 03:13:52;;;;;;;8.45;3.28;;;5.40;96.00;;;;;;5114548;28;20214;-60
2024/03/18 03:16:19;;;;;;;4.95;2.70;;;5.40;96.00;;;;;;5114402;28;20199;-60
2024/03/18 03:18:46;;;;;;;4.70;2.10;;;5.30;96.10;;;;;;5114176;28;20230;-61
2024/03/18 03:21:13;;;;;;;6.57;2.40;;;5.30;96.20;;;;;;5114433;28;20267;-60
2024/03/18 03:23:40;;;;;;;5.72;2.60;;;5.30;96.30;;;;;;5114427;28;20253;-60
2024/03/18 03:26:06;;;;;;;7.18;2.67;;;5.30;96.40;;;;;;5114295;28;20200;-60
2024/03/18 03:28:33;;;;;;;9.75;2.50;;;5.30;96.50;;;;;;5114257;28;20203;-61
2024/03/18 03:31:03;;;;;;;4.90;2.47;;;5.30;96.60;;;;;;5114221;28;20204;-61
2024/03/18 03:33:30;;;;;;;9.63;2.65;;;5.30;97.00;;;;;;5129145;22;20196;-62
2024/03/18 03:35:56;;;;;;;10.10;3.00;;;5.30;96.70;;;;;;5137126;27;20225;-62
2024/03/18 03:38:23;;;;;;;7.65;3.17;;;5.30;96.70;;;;;;5138182;27;20227;-63
2024/03/18 03:40:51;;;;;;;4.90;2.30;;;5.30;96.80;;;;;;5139115;27;20214;-62
2024/03/18 03:43:18;;;;;;;4.43;2.38;;;5.30;96.90;;;;;;5138917;27;20194;-62
2024/03/18 03:45:49;;;;;;;7.88;2.75;;;5.30;96.90;;;;;;5138688;27;20579;-62
2024/03/18 03:48:17;;;;;;;10.13;2.40;;;5.30;97.00;;;;;;5139710;27;20213;-62
2024/03/18 03:50:45;;;;;;;5.30;2.45;;;5.30;97.00;;;;;;5137321;27;20214;-62
2024/03/18 03:53:12;;;;;;;8.63;3.30;;;5.30;97.00;;;;;;5136490;27;20286;-62
2024/03/18 03:55:39;;;;;;;6.57;2.60;;;5.30;97.00;;;;;;5136947;27;20199;-61
2024/03/18 03:58:06;;;;;;;6.63;3.20;;;5.30;97.00;;;;;;5136929;27;20202;-63
2024/03/18 04:00:33;;;;;;;6.50;2.33;;;5.30;97.20;;;;;;5136680;27;20227;-63
2024/03/18 04:02:59;;;;;;;8.95;2.50;;;5.30;97.20;;;;;;5136679;27;20206;-63
2024/03/18 04:05:27;;;;;;;8.50;2.83;;;5.30;97.30;;;;;;5137083;27;20230;-62
2024/03/18 04:07:55;;;;;;;6.22;3.13;;;5.30;97.80;;;;;;5138730;27;20276;-63
2024/03/18 04:13:21;;;;;;;5.10;2.67;;;5.20;97.50;;;;;;5109167;27;1411803;-63
2024/03/18 04:15:49;;;;;;;5.63;2.60;;;5.20;97.60;;;;;;5135104;28;20439;-60
2024/03/18 04:18:17;;;;;;;4.88;2.67;;;5.20;97.70;;;;;;5135902;28;20306;-62
2024/03/18 04:20:43;;;;;;;8.35;2.92;;;5.20;97.80;;;;;;5137196;28;20206;-62
2024/03/18 04:23:10;;;;;;;5.60;2.28;;;5.20;97.90;;;;;;5140711;28;20205;-62
2024/03/18 04:25:37;;;;;;;7.72;2.80;;;5.20;98.10;;;;;;5138668;28;20739;-63
2024/03/18 04:28:07;;;;;;;6.32;2.92;;;5.20;98.30;;;;;;5132944;28;20207;-62
2024/03/18 04:30:36;;;;;;;4.97;3.30;;;5.20;98.40;;;;;;5132747;28;20199;-62
2024/03/18 04:33:04;;;;;;;6.28;3.08;;;5.10;98.40;;;;;;5132915;28;20223;-63
2024/03/18 04:35:31;;;;;;;4.07;2.40;;;5.10;98.60;;;;;;5132724;27;20219;-62
2024/03/18 04:37:58;;;;;;;3.35;2.20;;;5.10;98.70;;;;;;5132745;28;20218;-62
2024/03/18 04:40:26;;;;;;;6.38;3.10;;;5.10;98.80;;;;;;5133069;28;20203;-63
2024/03/18 04:42:54;;;;;;;6.57;2.92;;;5.10;98.90;;;;;;5133068;28;20548;-63
2024/03/18 04:45:22;;;;;;;5.75;2.40;;;5.10;98.90;;;;;;5133160;27;20226;-62
2024/03/18 04:47:52;;;;;;;7.78;2.80;;;5.10;99.30;;;;;;5133989;28;20199;-62
2024/03/18 04:50:21;;;;;;;3.35;2.15;;;5.00;99.10;;;;;;5132658;28;20519;-62
2024/03/18 04:52:48;;;;;;;4.75;2.60;;;5.00;99.20;;;;;;5132130;28;20722;-62
2024/03/18 04:55:15;;;;;;;11.25;3.38;;;4.90;99.30;;;;;;5132381;27;20215;-62
2024/03/18 04:57:42;;;;;;;6.10;2.72;;;4.90;99.50;;;;;;5132285;28;20203;-62
2024/03/18 05:00:14;;;;;;;6.00;2.85;;;4.90;99.60;;;;;;5132077;28;20203;-61
2024/03/18 05:02:41;;;;;;;5.97;3.10;;;4.80;99.80;;;;;;5135704;22;20708;-59
2024/03/18 05:05:10;;;;;;;3.35;2.40;;;4.80;99.90;;;;;;5114718;28;20196;-58
2024/03/18 05:07:37;;;;;;;8.65;3.20;;;4.70;99.90;;;;;;5113023;28;20203;-58
2024/03/18 05:10:06;;;;;;;8.07;2.67;;;4.70;99.90;;;;;;5109580;28;20365;-59
2024/03/18 05:12:33;;;;;;;5.75;2.53;;;4.60;99.90;;;;;;5109975;28;20227;-58
2024/03/18 05:15:00;;;;;;;5.13;3.28;;;4.60;99.90;;;;;;5109824;28;20699;-59
2024/03/18 05:17:26;;;;;;;3.60;2.67;;;4.60;99.90;;;;;;5109628;28;20196;-60
2024/03/18 05:19:53;;;;;;;5.88;3.50;;;4.50;99.90;;;;;;5109936;28;20211;-58
2024/03/18 05:22:22;;;;;;;7.18;2.70;;;4.50;99.90;;;;;;5109095;28;20720;-59
2024/03/18 05:24:49;;;;;;;10.32;3.70;;;4.50;99.90;;;;;;5095425;28;20196;-59
2024/03/18 05:27:18;;;;;;;7.63;3.38;;;4.50;99.90;;;;;;5096114;28;20200;-58
2024/03/18 05:29:45;;;;;;;4.35;2.85;;;4.50;99.90;;;;;;5096309;28;20208;-58
2024/03/18 05:32:13;;;;;;;6.57;3.63;;;4.50;99.90;;;;;;5095919;28;20231;-58
2024/03/18 05:34:40;;;;;;;4.55;2.70;;;4.50;99.90;;;;;;5096909;28;20625;-59
2024/03/18 05:37:09;;;;;;;4.45;2.95;;;4.50;99.90;;;;;;5096354;28;20204;-59
2024/03/18 05:39:37;;;;;;;5.95;3.05;;;4.50;99.90;;;;;;5095978;28;20250;-60
2024/03/18 05:42:05;;;;;;;7.32;2.65;;;4.60;99.90;;;;;;5095139;28;20726;-59
2024/03/18 05:44:32;;;;;;;3.55;2.40;;;4.60;99.90;;;;;;5096006;28;20204;-59
2024/03/18 05:46:59;;;;;;;6.07;3.22;;;4.60;99.90;;;;;;5095296;28;20282;-59
2024/03/18 05:49:25;;;;;;;7.15;2.80;;;4.70;99.90;;;;;;5095778;28;20200;-60
2024/03/18 05:51:52;;;;;;;6.78;2.70;;;4.70;99.90;;;;;;5095055;28;20243;-59
2024/03/18 05:54:19;;;;;;;9.63;2.72;;;4.80;99.90;;;;;;5096297;28;20201;-60
2024/03/18 05:56:48;;;;;;;6.10;2.85;;;4.80;99.90;;;;;;5098922;28;20234;-59
2024/03/18 05:59:15;;;;;;;6.18;3.35;;;4.90;99.90;;;;;;5097786;28;20208;-59
2024/03/18 06:01:42;;;;;;;6.85;2.90;;;4.90;99.90;;;;;;5094980;28;20702;-58
2024/03/18 06:04:11;;;;;;;4.72;3.10;;;5.00;99.90;;;;;;5095279;28;20595;-60
2024/03/18 06:06:38;;;;;;;6.32;2.85;;;5.10;99.90;;;;;;5094817;28;20670;-59
2024/03/18 06:09:05;;;;;;;15.45;4.13;;;5.10;99.90;;;;;;5095230;28;20284;-59
2024/03/18 06:11:33;;;;;;;7.30;3.67;;;5.20;99.90;;;;;;5094631;28;20224;-60
2024/03/18 06:14:02;;;;;;;6.15;3.20;;;5.20;99.90;;;;;;5095007;28;20203;-59
2024/03/18 06:16:28;;;;;;;5.35;2.83;;;5.20;99.90;;;;;;5094736;28;20269;-60
2024/03/18 06:18:55;;;;;;;5.95;3.33;;;5.30;99.90;;;;;;5094509;28;20200;-59
2024/03/18 06:21:28;;;;;;;5.18;3.08;;;5.30;99.90;;;;;;5094479;28;20238;-59
2024/03/18 06:23:57;;;;;;;5.07;3.33;;;5.30;99.90;;;;;;5094704;28;20613;-59
2024/03/18 06:26:23;;;;;;;3.78;3.30;;;5.30;99.90;;;;;;5094371;28;20251;-59
2024/03/18 06:28:50;;;;;;;4.50;2.67;;;5.40;99.90;;;;;;5094796;28;20227;-59
2024/03/18 06:31:18;;;;;;;3.22;2.67;;;5.40;99.90;;;;;;5094633;28;20465;-59
2024/03/18 06:33:47;;;;;;;5.15;3.33;;;5.40;99.90;;;;;;5094728;28;20216;-60
2024/03/18 06:36:14;;;;;;;4.85;3.30;;;5.40;99.90;;;;;;5093458;28;20212;-59
2024/03/18 06:38:42;;;;;;;9.60;3.30;;;5.40;99.90;;;;;;5095124;28;20203;-59
2024/03/18 06:41:09;;;;;;;9.20;4.65;;;5.50;99.90;;;;;;5094725;28;20220;-59
2024/03/18 06:43:36;;;;;;;5.70;3.05;;;5.50;99.90;;;;;;5094423;28;20207;-60
2024/03/18 06:46:05;;;;;;;6.60;2.95;;;5.50;99.90;;;;;;5093872;28;20200;-59
2024/03/18 06:48:33;;;;;;;6.22;3.08;;;5.60;99.90;;;;;;5094810;28;20204;-60
2024/03/18 06:51:00;;;;;;;5.75;3.00;;;5.70;99.90;;;;;;5094315;28;20254;-60
2024/03/18 06:53:27;;;;;;;5.00;2.78;;;5.70;99.90;;;;;;5094715;28;20661;-59
2024/03/18 06:55:54;;;;;;;6.22;4.60;;;5.70;99.90;;;;;;5094024;28;20226;-60
2024/03/18 06:58:24;;;;;;;5.25;3.70;;;5.80;99.90;;;;;;5094193;28;20209;-59
2024/03/18 07:00:51;;;;;;;16.25;5.60;;;5.90;99.90;;;;;;5093992;28;20298;-60
2024/03/18 07:03:20;;;;;;;5.60;3.70;;;5.90;99.90;;;;;;5093449;28;20309;-59
2024/03/18 07:05:48;;;;;;;5.38;3.42;;;6.00;99.90;;;;;;5094282;28;20284;-60
2024/03/18 07:08:15;;;;;;;5.75;3.72;;;6.00;99.90;;;;;;5093551;28;20208;-60
2024/03/18 07:10:42;;;;;;;5.65;3.15;;;6.00;99.90;;;;;;5093675;28;20607;-60
2024/03/18 07:13:09;;;;;;;8.73;4.70;;;6.00;99.90;;;;;;5093221;28;20243;-61
2024/03/18 07:15:36;;;;;;;6.22;4.07;;;6.10;99.90;;;;;;5093659;28;20249;-60
2024/03/18 07:18:03;;;;;;;5.90;3.38;;;6.10;99.90;;;;;;5094047;28;20207;-59
2024/03/18 07:20:30;;;;;;;4.80;3.53;;;6.10;99.90;;;;;;5093567;28;20299;-59
2024/03/18 07:22:58;;;;;;;6.25;3.60;;;6.10;99.90;;;;;;5094930;28;20269;-58
2024/03/18 07:25:25;;;;;;;6.88;4.28;;;6.10;99.90;;;;;;5093539;28;20226;-59
2024/03/18 07:27:51;;;;;;;12.07;6.32;;;6.10;99.90;;;;;;5093483;28;20201;-60
2024/03/18 07:30:18;;;;;;;4.55;3.33;;;6.20;99.90;;;;;;5093732;28;20195;-60
2024/03/18 07:32:46;;;;;;;4.07;3.38;;;6.20;99.90;;;;;;5093974;28;20240;-60
2024/03/18 07:35:14;;;;;;;7.95;3.90;;;6.30;99.90;;;;;;5094634;28;20200;-60
2024/03/18 07:37:41;;;;;;;6.22;3.30;;;6.30;99.90;;;;;;5093842;28;20623;-59
2024/03/18 07:40:11;;;;;;;7.13;3.30;;;6.30;99.90;;;;;;5095198;28;20211;-60
2024/03/18 07:42:39;;;;;;;7.47;3.85;;;6.30;99.90;;;;;;5097474;28;20223;-59
2024/03/18 07:45:07;;;;;;;8.07;4.00;;;6.30;99.90;;;;;;5097523;28;20204;-59
2024/03/18 07:47:34;;;;;;;4.68;3.97;;;6.30;99.90;;;;;;5093566;28;20204;-60
2024/03/18 07:50:03;;;;;;;6.07;3.28;;;6.30;99.90;;;;;;5093194;28;20751;-58
2024/03/18 07:52:29;;;;;;;7.40;3.58;;;6.30;99.90;;;;;;5093639;28;20306;-60
2024/03/18 07:54:58;;;;;;;6.00;4.10;;;6.30;99.90;;;;;;5093669;28;20200;-59
2024/03/18 07:57:26;;;;;;;3.95;3.40;;;6.40;99.90;;;;;;5097950;28;20208;-60
2024/03/18 07:59:53;;;;;;;4.20;3.50;;;6.50;99.90;;;;;;5097081;28;20227;-60
2024/03/18 08:02:20;;;;;;;6.70;3.70;;;6.60;99.90;;;;;;5093789;28;20224;-59
2024/03/18 08:04:49;;;;;;;5.60;4.38;;;6.70;99.90;;;;;;5093058;28;20216;-59
2024/03/18 08:07:15;;;;;;;6.60;4.78;;;6.70;99.90;;;;;;5093498;28;20250;-59
2024/03/18 08:09:42;;;;;;;7.60;4.20;;;6.70;99.90;;;;;;5093918;28;20666;-59
2024/03/18 08:12:09;;;;;;;7.72;4.80;;;6.80;99.90;;;;;;5093554;28;20223;-62
2024/03/18 08:14:41;;;;;;;7.05;4.95;;;6.90;99.90;;;;;;5094076;28;20215;-60
2024/03/18 08:17:09;;;;;;;4.32;3.80;;;7.00;99.90;;;;;;5093622;28;20184;-60
2024/03/18 08:19:35;;;;;;;6.75;3.50;;;7.10;99.90;;;;;;5093349;28;20300;-59
2024/03/18 08:22:02;;;;;;;9.70;4.30;;;7.10;99.90;;;;;;5093045;28;20255;-59
2024/03/18 08:24:29;;;;;;;6.25;4.22;;;7.20;99.90;;;;;;5093746;28;20205;-59
2024/03/18 08:26:56;;;;;;;10.75;4.25;;;7.20;99.90;;;;;;5094150;28;20307;-59
2024/03/18 08:29:22;;;;;;;8.98;4.72;;;7.30;99.90;;;;;;5093630;28;20200;-59
2024/03/18 08:31:51;;;;;;;7.82;4.15;;;7.30;99.90;;;;;;5093030;28;20221;-59
2024/03/18 08:34:17;;;;;;;7.32;4.18;;;7.30;99.90;;;;;;5092825;28;20723;-60
2024/03/18 08:36:44;;;;;;;5.50;3.83;;;7.30;99.80;;;;;;5094227;28;20542;-59
2024/03/18 08:39:11;;;;;;;5.65;4.15;;;7.30;99.50;;;;;;5092643;28;20215;-59
2024/03/18 08:41:38;;;;;;;5.82;4.35;;;7.40;99.00;;;;;;5093017;28;20220;-59
2024/03/18 08:44:06;;;;;;;5.82;4.15;;;7.40;98.60;;;;;;5093788;28;20200;-59
2024/03/18 08:46:32;;;;;;;7.35;4.97;;;7.30;98.30;;;;;;5092946;28;20669;-58
2024/03/18 08:49:00;;;;;;;8.15;4.82;;;7.40;98.40;;;;;;5092680;28;20207;-59
2024/03/18 08:51:27;;;;;;;7.47;5.10;;;7.50;98.10;;;;;;5092729;28;20220;-60
2024/03/18 08:53:54;;;;;;;6.93;4.93;;;7.60;97.90;;;;;;5093084;28;20216;-60
2024/03/18 08:56:21;;;;;;;7.28;4.25;;;7.70;97.70;;;;;;5093020;28;20204;-59
2024/03/18 08:58:50;;;;;;;7.25;4.28;;;7.80;97.10;;;;;;5094068;28;20670;-60
2024/03/18 09:01:16;;;;;;;7.50;4.15;;;7.80;96.50;;;;;;5096187;28;20709;-60
2024/03/18 09:03:43;;;;;;;10.73;4.40;;;7.80;96.30;;;;;;5096471;28;20585;-59
2024/03/18 09:06:11;;;;;;;7.22;4.45;;;7.80;96.00;;;;;;5096294;28;20204;-60
2024/03/18 09:08:38;;;;;;;7.07;3.65;;;7.90;95.80;;;;;;5096860;28;20204;-59
2024/03/18 09:11:05;;;;;;;7.55;4.82;;;7.90;95.30;;;;;;5096687;28;20228;-60
2024/03/18 09:13:32;;;;;;;7.35;4.32;;;7.90;95.10;;;;;;5096303;28;20215;-59
2024/03/18 09:15:59;;;;;;;6.70;4.32;;;8.00;95.10;;;;;;5096359;28;20657;-60
2024/03/18 09:18:25;;;;;;;8.68;4.72;;;8.10;95.00;;;;;;5096584;28;20205;-59
2024/03/18 09:20:55;;;;;;;6.40;4.47;;;8.20;94.60;;;;;;5096398;28;20204;-60
2024/03/18 09:23:23;;;;;;;7.50;4.43;;;8.30;94.30;;;;;;5096416;28;20296;-59
2024/03/18 09:25:50;;;;;;;21.95;13.07;;;8.40;94.10;;;;;;5096069;28;20472;-59
2024/03/18 09:28:17;;;;;;;9.03;5.33;;;8.50;93.40;;;;;;5096215;28;20260;-60
2024/03/18 09:30:44;;;;;;;7.95;4.55;;;8.50;93.10;;;;;;5096309;28;20493;-59
2024/03/18 09:33:11;;;;;;;12.57;4.53;;;8.50;93.10;;;;;;5095527;28;20225;-60
2024/03/18 09:35:38;;;;;;;5.40;4.37;;;8.60;93.00;;;;;;5095653;28;20475;-60
2024/03/18 09:38:05;;;;;;;6.83;5.00;;;8.80;93.10;;;;;;5096101;28;20445;-60
2024/03/18 09:40:33;;;;;;;8.43;4.83;;;8.90;92.90;;;;;;5096275;28;20449;-60
2024/03/18 09:43:00;;;;;;;9.73;4.97;;;9.10;93.00;;;;;;5095702;28;20464;-60
2024/03/18 09:45:27;;;;;;;5.30;4.20;;;9.20;92.80;;;;;;5096077;28;20438;-61
2024/03/18 09:47:56;;;;;;;8.93;4.90;;;9.30;92.70;;;;;;5096585;28;20469;-59
2024/03/18 09:50:23;;;;;;;8.87;5.50;;;9.40;92.80;;;;;;5097078;28;20443;-59
2024/03/18 09:52:52;;;;;;;5.20;4.70;;;9.40;92.50;;;;;;5097559;28;20467;-60
2024/03/18 09:55:23;;;;;;;10.03;5.10;;;9.40;92.50;;;;;;5097877;28;20453;-61
2024/03/18 09:57:52;;;;;;;6.40;5.20;;;9.50;92.50;;;;;;5095481;28;20451;-59
2024/03/18 10:00:20;;;;;;;9.50;4.80;;;9.60;92.80;;;;;;5095258;28;20548;-59
2024/03/18 10:02:47;;;;;;;8.93;5.10;;;9.80;93.10;;;;;;5095202;28;20990;-60
2024/03/18 10:05:14;;;;;;;6.33;4.73;;;10.10;92.40;;;;;;5094952;28;20544;-60
2024/03/18 10:07:44;;;;;;;10.00;5.30;;;10.20;92.20;;;;;;5095074;28;20943;-59
2024/03/18 10:10:16;;;;;;;7.00;4.50;;;10.30;92.00;;;;;;5095088;28;20422;-59
2024/03/18 10:12:43;;;;;;;6.77;5.73;;;10.40;92.00;;;;;;5098510;28;20966;-60
2024/03/18 10:15:13;;;;;;;7.40;4.83;;;10.50;91.80;;;;;;5101893;28;20445;-59
2024/03/18 10:17:41;;;;;;;9.53;4.67;;;10.60;91.20;;;;;;5101221;28;20837;-60
2024/03/18 10:20:19;;;;;;;8.40;4.60;;;10.70;90.90;;;;;;5096923;28;20864;-59
2024/03/18 10:22:47;;;;;;;6.77;4.73;;;10.80;89.90;;;;;;5095213;28;20462;-59
2024/03/18 10:25:18;;;;;;;8.70;4.83;;;10.80;86.80;;;;;;5094895;28;20468;-60
2024/03/18 10:27:45;;;;;;;8.20;4.67;;;10.80;85.20;;;;;;5095068;28;20425;-60
2024/03/18 10:30:14;;;;;;;9.47;4.87;;;10.70;83.00;;;;;;5095166;28;20453;-60
2024/03/18 10:32:42;;;;;;;6.77;5.33;;;10.80;82.20;;;;;;5094593;28;20475;-59
2024/03/18 10:35:18;;;;;;;7.50;5.30;;;10.90;80.30;;;;;;5095067;28;20481;-60
2024/03/18 10:37:53;;;;;;;10.40;6.30;;;11.10;78.30;;;;;;5095069;28;20487;-60
2024/03/18 10:40:30;;;;;;;9.37;5.00;;;11.30;76.30;;;;;;5094497;28;20430;-61
2024/03/18 10:43:01;;;;;;;8.57;5.17;;;11.40;74.40;;;;;;5095005;28;20458;-61
2024/03/18 10:45:31;;;;;;;9.97;5.23;;;11.50;73.50;;;;;;5094669;28;20419;-60
2024/03/18 10:47:59;;;;;;;5.80;4.77;;;11.70;72.40;;;;;;5094749;28;20453;-61
2024/03/18 10:50:26;;;;;;;13.87;5.57;;;11.80;70.80;;;;;;5094224;28;20450;-60
2024/03/18 10:52:55;;;;;;;7.37;4.40;;;12.00;70.00;;;;;;5094839;28;20472;-61
2024/03/18 10:55:23;;;;;;;11.00;6.07;;;12.20;68.80;;;;;;5094449;28;21007;-61
2024/03/18 10:57:51;;;;;;;11.30;5.40;;;12.20;67.50;;;;;;5094523;28;20477;-62
2024/03/18 11:00:18;;;;;;;9.63;5.03;;;12.30;66.70;;;;;;5094400;28;20530;-60
2024/03/18 11:02:55;;;;;;;6.07;4.80;;;12.30;65.90;;;;;;5093670;28;20856;-59
2024/03/18 11:05:24;;;;;;;10.50;4.57;;;12.20;65.00;;;;;;5094391;28;20433;-61
2024/03/18 11:07:53;;;;;;;7.20;4.90;;;12.00;64.70;;;;;;5094308;28;20434;-60
2024/03/18 11:10:22;;;;;;;11.07;5.50;;;11.90;64.30;;;;;;5094241;28;20442;-60
2024/03/18 11:12:48;;;;;;;9.10;5.50;;;11.80;64.10;;;;;;5094187;28;20462;-60
2024/03/18 11:15:17;;;;;;;7.00;5.27;;;11.70;64.00;;;;;;5093722;28;20485;-60
2024/03/18 11:17:46;;;;;;;7.40;5.20;;;11.50;64.00;;;;;;5093801;28;20868;-61
2024/03/18 11:20:16;;;;;;;8.30;5.37;;;11.40;63.90;;;;;;5094243;28;20879;-60
2024/03/18 11:22:55;;;;;;;9.13;5.50;;;11.30;64.20;;;;;;5093145;28;20469;-60
2024/03/18 11:25:25;;;;;;;9.10;4.77;;;11.30;64.60;;;;;;5093341;28;20432;-61
2024/03/18 11:27:53;;;;;;;6.83;6.03;;;11.40;64.50;;;;;;5093406;28;20463;-60
2024/03/18 11:30:27;;;;;;;6.57;5.37;;;11.40;64.20;;;;;;5093143;28;20453;-62
2024/03/18 11:32:54;;;;;;;13.20;5.60;;;11.40;64.30;;;;;;5093272;28;20547;-60
2024/03/18 11:35:22;;;;;;;9.83;5.33;;;11.60;65.00;;;;;;5094098;28;20477;-61
2024/03/18 11:37:49;;;;;;;8.50;4.83;;;11.60;63.70;;;;;;5093778;28;20441;-60
2024/03/18 11:40:17;;;;;;;10.70;6.13;;;11.60;63.60;;;;;;5093988;28;20569;-59
2024/03/18 11:42:44;;;;;;;11.03;5.83;;;11.60;63.90;;;;;;5093879;28;21000;-60
2024/03/18 11:45:16;;;;;;;8.27;5.80;;;11.60;63.80;;;;;;5093671;28;20446;-61
2024/03/18 11:47:43;;;;;;;6.80;5.10;;;11.70;63.60;;;;;;5094552;28;20429;-61
2024/03/18 11:50:12;;;;;;;11.10;6.07;;;11.70;63.50;;;;;;5094562;28;20456;-60
2024/03/18 11:52:42;;;;;;;8.57;5.20;;;11.80;63.50;;;;;;5094977;28;20471;-60
2024/03/18 11:55:15;;;;;;;8.60;5.70;;;11.90;63.10;;;;;;5094545;28;20481;-60
2024/03/18 11:57:41;;;;;;;6.73;5.10;;;12.00;62.50;;;;;;5093906;28;20423;-60
2024/03/18 12:00:12;;;;;;;11.50;5.70;;;12.00;62.40;;;;;;5093385;28;20439;-60
2024/03/18 12:02:40;;;;;;;8.60;5.67;;;12.10;62.40;;;;;;5092720;28;20466;-60
2024/03/18 12:05:07;;;;;;;10.80;6.10;;;12.20;62.20;;;;;;5093223;28;20442;-60
2024/03/18 12:07:34;;;;;;;8.60;5.40;;;12.40;62.20;;;;;;5093033;28;20434;-60
2024/03/18 12:10:04;;;;;;;9.90;6.43;;;12.70;61.90;;;;;;5093094;28;20453;-62
2024/03/18 12:12:31;;;;;;;7.47;5.70;;;12.80;61.20;;;;;;5092530;28;20458;-59
2024/03/18 12:14:58;;;;;;;6.60;5.23;;;12.80;60.80;;;;;;5092711;28;20478;-60
2024/03/18 12:17:27;;;;;;;6.83;5.07;;;12.90;60.80;;;;;;5095147;28;20446;-60
2024/03/18 12:19:59;;;;;;;11.13;5.60;;;13.10;60.70;;;;;;5093734;28;20465;-59
2024/03/18 12:22:28;;;;;;;11.50;5.80;;;13.30;60.30;;;;;;5093739;28;20561;-60
2024/03/18 12:30:30;;;;;;;6.43;5.27;;;13.40;59.20;;;;;;5093096;28;20410;-62
2024/03/18 12:32:57;;;;;;;8.63;5.53;;;13.40;59.30;;;;;;5093437;28;20983;-61
2024/03/18 12:35:24;;;;;;;8.67;5.10;;;13.50;59.10;;;;;;5096968;28;21011;-60
2024/03/18 12:37:53;;;;;;;9.83;5.70;;;13.50;58.80;;;;;;5097141;28;20937;-62
2024/03/18 12:40:20;;;;;;;7.40;5.00;;;13.60;58.70;;;;;;5097291;28;20439;-61
2024/03/18 12:42:48;;;;;;;7.77;5.27;;;13.60;58.50;;;;;;5097460;28;20467;-60
2024/03/18 12:45:15;;;;;;;7.60;5.03;;;13.50;58.40;;;;;;5097233;28;20444;-60
2024/03/18 12:47:42;;;;;;;7.53;6.17;;;13.50;58.50;;;;;;5096618;28;20444;-60
2024/03/18 12:50:16;;;;;;;9.00;5.97;;;13.40;58.40;;;;;;5097686;28;20446;-60
2024/03/18 12:52:43;;;;;;;8.67;5.20;;;13.40;58.50;;;;;;5099733;28;20463;-60
2024/03/18 12:55:11;;;;;;;7.93;5.57;;;13.40;58.50;;;;;;5102260;28;20471;-60
2024/03/18 12:57:40;;;;;;;6.03;5.07;;;13.30;58.50;;;;;;5102814;28;20497;-61
2024/03/18 13:00:11;;;;;;;9.43;5.40;;;13.30;58.60;;;;;;5098609;28;20438;-60
2024/03/18 13:02:39;;;;;;;7.10;5.23;;;13.20;58.70;;;;;;5097725;28;20523;-62
2024/03/18 13:05:08;;;;;;;10.13;6.50;;;13.30;58.70;;;;;;5096947;28;20851;-61
2024/03/18 13:07:35;;;;;;;9.03;5.60;;;13.30;58.60;;;;;;5097771;28;20831;-61